Nearby METAR Reports

 

EGUW - Wattisham Raf, United Kingdom
Distance from station: SW 12mi, 19km
Updated: 14/07/2020 11:50
Mostly cloudy
Mostly cloudy
 Wind from NNW
Wind: NNW 9 mph , 15 km/h
Temperature: 18°C
Dew Point: 11°C
Humidity: 64%
Barometer: 1015 hPa
Clouds: Mostly cloudy
Visibility: 6 miles , 10 km
Cloud details: Partly cloudy 853 m
Mostly cloudy 1524 m
2020/07/14 10:50 EGUW 141050Z 33008KT 9999 SCT028 BKN050 18/11 Q1015 NOSIG RMK BLU BLU
EGUL - Lakenheath Raf, United Kingdom
Distance from station: WNW 29mi, 47km
Updated: 14/07/2020 11:56
Few Clouds
Few Clouds
 Wind from NW
Wind: NW 12 mph , 19 km/h
Temperature: 18°C
Dew Point: 5°C
Humidity: 43%
Barometer: 1015.6 hPa
Clouds: Few Clouds
Visibility: 6 miles , 10 km
Cloud details: Few Clouds 1128 m
Few Clouds 6401 m
2020/07/14 10:56 EGUL 141056Z AUTO 31010KT 9999 FEW037 FEW210 18/05 A2999 RMK AO2 SLP159 T01810053 $
 
EGUN - Mildenhall Raf, United Kingdom
Distance from station: WNW 32mi, 51km
Updated: 14/07/2020 11:56
Few Clouds
Few Clouds
 Wind from NW
Wind: NW 9 mph , 15 km/h
Temperature: 19°C
Dew Point: 11°C
Humidity: 60%
Barometer: 1015.6 hPa
Clouds: Few Clouds
Visibility: 6 miles , 10 km
Cloud details: Few Clouds 5791 m
2020/07/14 10:56 EGUN 141056Z AUTO 32008KT 9999 FEW190 19/11 A2999 RMK AO2 SLP158 T01860112 $
EGSH - Norwich Wea Cntr, United Kingdom
Distance from station: N 32mi, 52km
Updated: 14/07/2020 11:50
Partly cloudy
Partly cloudy
 Wind from NW
Wind: NW 6 mph , 9 km/h
Temperature: 18°C
Dew Point: 11°C
Humidity: 64%
Barometer: 1015 hPa
Clouds: Partly cloudy
Visibility: 6 miles , 10 km
Cloud details: Partly cloudy 732 m
2020/07/14 10:50 EGSH 141050Z 31005KT 260V360 9999 SCT024 18/11 Q1015 NOSIG
 
EGYM - Marham Raf, United Kingdom
Distance from station: NW 39mi, 62km
Updated: 14/07/2020 11:50
Mostly cloudy
Mostly cloudy
 Wind from WNW
Wind: WNW 12 mph , 19 km/h
Temperature: 17°C
Dew Point: 10°C
Humidity: 64%
Barometer: 1016 hPa
Clouds: Mostly cloudy
Visibility: 6 miles , 10 km
Cloud details: Few Clouds 1219 m
Partly cloudy 1372 m
Mostly cloudy 6096 m
2020/07/14 10:50 EGYM 141050Z 30010KT 9999 FEW040 SCT045 BKN200 17/10 Q1016 NOSIG RMK BLU BLU
EGSC - Cambridge, United Kingdom
Distance from station: W 43mi, 69km
Updated: 14/07/2020 11:50
Partly cloudy
Partly cloudy
 Wind from NW
Wind: NW 9 mph , 15 km/h
Temperature: 18°C
Dew Point: 11°C
Humidity: 64%
Barometer: 1016 hPa
Clouds: Partly cloudy
Visibility: 6 miles , 10 km
Cloud details: Few Clouds 671 m
Partly cloudy 853 m
2020/07/14 10:50 EGSC 141050Z 31008KT 9999 FEW022 SCT028 18/11 Q1016
 
EGSS - Stansted Airport, United Kingdom
Distance from station: WSW 47mi, 76km
Updated: 14/07/2020 11:50
Partly cloudy
Partly cloudy
 Wind from NNW
Wind: NNW 7 mph , 11 km/h
Temperature: 18°C
Dew Point: 12°C
Humidity: 68%
Barometer: 1016 hPa
Clouds: Partly cloudy
Visibility: 6 miles , 10 km
Cloud details: Partly cloudy 640 m
2020/07/14 10:50 EGSS 141050Z AUTO 33006KT 290V360 9999 SCT021 18/12 Q1016
EGMC - Southend-On-Sea, United Kingdom
Distance from station: SSW 50mi, 80km
Updated: 14/07/2020 11:50
Few Clouds
Few Clouds
 Wind from N
Wind: N 5 mph , 7 km/h
Temperature: 20°C
Dew Point: 13°C
Humidity: 64%
Barometer: 1016 hPa
Clouds: Few Clouds
Visibility: 6 miles , 10 km
Cloud details: Few Clouds 884 m
2020/07/14 10:50 EGMC 141050Z 35004KT 300V050 9999 FEW029 20/13 Q1016